Time;durP1;ratioP1;P1;durP2;ratioP2;P2;SDS_P1;SDS_P2;PMS_P1;PMS_P2;Temp;Humidity;BMP_temperature;BMP_pressure;BME280_temperature;BME280_humidity;BME280_pressure;Samples;Min_cycle;Max_cycle;Signal;HPM_P1;HPM_P2
2021/05/21 00:01:22;;;;;;;2.35;0.90;;;;;;;;;;4925810;28;20162;-86
2021/05/21 00:03:48;;;;;;;1.77;0.90;;;;;;;;;;4926698;28;20043;-85
2021/05/21 00:06:15;;;;;;;1.30;0.80;;;;;;;;;;4941525;28;20082;-88
2021/05/21 00:08:41;;;;;;;2.75;1.00;;;;;;;;;;4911728;28;20063;-87
2021/05/21 00:11:07;;;;;;;2.10;1.00;;;;;;;;;;4931872;28;20090;-87
2021/05/21 00:13:34;;;;;;;1.80;0.77;;;;;;;;;;4921530;28;20027;-86
2021/05/21 00:16:00;;;;;;;2.08;1.00;;;;;;;;;;4926633;28;20036;-86
2021/05/21 00:18:28;;;;;;;2.13;1.00;;;;;;;;;;4909242;28;20036;-86
2021/05/21 00:20:55;;;;;;;2.72;1.00;;;;;;;;;;4927355;28;20388;-86
2021/05/21 00:23:21;;;;;;;3.30;1.10;;;;;;;;;;4926051;28;20091;-87
2021/05/21 00:25:47;;;;;;;2.75;1.15;;;;;;;;;;4929834;28;20122;-86
2021/05/21 00:28:14;;;;;;;1.85;0.93;;;;;;;;;;4912387;28;20507;-86
2021/05/21 00:30:40;;;;;;;2.03;0.90;;;;;;;;;;4928521;28;20058;-86
2021/05/21 00:33:07;;;;;;;3.05;1.00;;;;;;;;;;4910591;28;20499;-86
2021/05/21 00:35:33;;;;;;;1.95;0.93;;;;;;;;;;4927155;28;20036;-86
2021/05/21 00:38:00;;;;;;;1.30;0.77;;;;;;;;;;4916166;28;20036;-86
2021/05/21 00:40:26;;;;;;;1.70;0.88;;;;;;;;;;4925888;28;20062;-87
2021/05/21 00:42:53;;;;;;;1.90;1.10;;;;;;;;;;4913323;29;20075;-88
2021/05/21 00:45:19;;;;;;;2.13;0.98;;;;;;;;;;4925864;28;21428;-87
2021/05/21 00:47:47;;;;;;;1.90;0.93;;;;;;;;;;4927606;28;20795;-88
2021/05/21 00:50:14;;;;;;;1.58;0.90;;;;;;;;;;4925444;28;20068;-88
2021/05/21 00:52:42;;;;;;;3.00;1.00;;;;;;;;;;4916097;28;21322;-89
2021/05/21 00:55:09;;;;;;;1.67;0.90;;;;;;;;;;4932713;28;20091;-88
2021/05/21 00:57:35;;;;;;;1.55;0.80;;;;;;;;;;4920919;28;20039;-89
2021/05/21 01:00:02;;;;;;;1.83;1.00;;;;;;;;;;4933225;28;20087;-88
2021/05/21 01:02:28;;;;;;;1.50;0.90;;;;;;;;;;4916050;29;20032;-88
2021/05/21 01:04:55;;;;;;;2.85;0.90;;;;;;;;;;4927368;28;20464;-84
2021/05/21 01:07:21;;;;;;;2.35;0.95;;;;;;;;;;4919213;28;20060;-84
2021/05/21 01:09:48;;;;;;;2.38;0.90;;;;;;;;;;4922049;28;20063;-83
2021/05/21 01:12:14;;;;;;;3.28;1.08;;;;;;;;;;4907843;28;20031;-84
2021/05/21 01:14:51;;;;;;;1.40;1.00;;;;;;;;;;4926261;28;20051;-84
2021/05/21 01:17:18;;;;;;;1.23;0.90;;;;;;;;;;4927771;28;20055;-84
2021/05/21 01:19:45;;;;;;;1.77;0.80;;;;;;;;;;4911418;28;20063;-83
2021/05/21 01:22:12;;;;;;;2.20;1.00;;;;;;;;;;4921970;28;20055;-84
2021/05/21 01:24:38;;;;;;;2.10;1.25;;;;;;;;;;4922885;28;20063;-85
2021/05/21 01:27:05;;;;;;;1.92;1.10;;;;;;;;;;4908419;28;20095;-84
2021/05/21 01:29:32;;;;;;;2.17;1.20;;;;;;;;;;4923271;28;20093;-84
2021/05/21 01:31:59;;;;;;;2.30;1.00;;;;;;;;;;4914220;29;20059;-83
2021/05/21 01:34:25;;;;;;;2.17;1.05;;;;;;;;;;4906542;28;20079;-83
2021/05/21 01:36:52;;;;;;;1.88;0.90;;;;;;;;;;4920942;28;20032;-88
2021/05/21 01:39:18;;;;;;;2.40;1.00;;;;;;;;;;4926506;28;20052;-88
2021/05/21 01:41:45;;;;;;;2.03;1.10;;;;;;;;;;4943048;28;20039;-84
2021/05/21 01:44:12;;;;;;;2.75;1.08;;;;;;;;;;4904779;28;20062;-84
2021/05/21 01:46:39;;;;;;;1.50;0.90;;;;;;;;;;4917354;28;20137;-83
2021/05/21 01:49:06;;;;;;;1.75;0.90;;;;;;;;;;4907054;28;20067;-83
2021/05/21 01:51:34;;;;;;;2.28;0.98;;;;;;;;;;4934037;28;20068;-83
2021/05/21 01:54:14;;;;;;;1.55;1.10;;;;;;;;;;4929881;28;20071;-86
2021/05/21 01:56:40;;;;;;;1.67;0.85;;;;;;;;;;4929304;28;21108;-88
2021/05/21 01:59:07;;;;;;;1.77;1.00;;;;;;;;;;4924209;28;20145;-87
2021/05/21 02:01:33;;;;;;;1.25;0.90;;;;;;;;;;4927210;28;20075;-86
2021/05/21 02:04:00;;;;;;;2.60;0.98;;;;;;;;;;4924572;28;20060;-86
2021/05/21 02:06:27;;;;;;;1.52;0.90;;;;;;;;;;4937171;28;20055;-87
2021/05/21 02:08:53;;;;;;;1.83;0.90;;;;;;;;;;4917191;28;20381;-83
2021/05/21 02:11:20;;;;;;;2.42;1.00;;;;;;;;;;4929702;28;20441;-84
2021/05/21 02:13:46;;;;;;;1.13;0.85;;;;;;;;;;4927290;29;20028;-85
2021/05/21 02:16:14;;;;;;;1.58;0.90;;;;;;;;;;4936342;28;20036;-84
2021/05/21 02:18:42;;;;;;;2.08;1.00;;;;;;;;;;4926360;28;20029;-85
2021/05/21 02:21:08;;;;;;;1.95;0.95;;;;;;;;;;4935240;28;20031;-85
2021/05/21 02:23:35;;;;;;;2.25;0.90;;;;;;;;;;4936306;28;20051;-85
2021/05/21 02:26:01;;;;;;;2.22;0.98;;;;;;;;;;4928963;28;20063;-86
2021/05/21 02:28:28;;;;;;;1.83;0.90;;;;;;;;;;4900096;28;20055;-85
2021/05/21 02:30:54;;;;;;;3.10;1.20;;;;;;;;;;4912970;29;20036;-86
2021/05/21 02:33:21;;;;;;;1.83;0.98;;;;;;;;;;4931672;28;20063;-86
2021/05/21 02:35:47;;;;;;;1.80;0.90;;;;;;;;;;4942886;28;20625;-86
2021/05/21 02:38:13;;;;;;;2.40;1.17;;;;;;;;;;4941622;28;20047;-86
2021/05/21 02:40:40;;;;;;;2.47;1.10;;;;;;;;;;4947215;28;20051;-86
2021/05/21 02:43:06;;;;;;;1.45;0.70;;;;;;;;;;4931694;28;20528;-87
2021/05/21 02:45:33;;;;;;;1.80;1.02;;;;;;;;;;4929827;28;20091;-86
2021/05/21 02:47:59;;;;;;;2.03;0.93;;;;;;;;;;4907093;29;20189;-87
2021/05/21 02:50:25;;;;;;;2.15;1.10;;;;;;;;;;4922266;28;20051;-86
2021/05/21 02:52:52;;;;;;;1.40;0.80;;;;;;;;;;4930908;28;20071;-87
2021/05/21 02:55:18;;;;;;;1.10;0.77;;;;;;;;;;4923085;28;20107;-85
2021/05/21 02:57:45;;;;;;;2.20;1.02;;;;;;;;;;4914367;28;20562;-85
2021/05/21 03:00:11;;;;;;;1.98;1.00;;;;;;;;;;4910742;28;20539;-84
2021/05/21 03:02:38;;;;;;;2.80;1.02;;;;;;;;;;4927507;28;20133;-85
2021/05/21 03:05:05;;;;;;;1.73;1.00;;;;;;;;;;4922500;28;20035;-84
2021/05/21 03:07:31;;;;;;;1.60;1.00;;;;;;;;;;4935180;28;20129;-84
2021/05/21 03:09:58;;;;;;;1.33;0.85;;;;;;;;;;4932317;28;20043;-83
2021/05/21 03:12:24;;;;;;;1.48;0.85;;;;;;;;;;4917024;28;20173;-83
2021/05/21 03:14:50;;;;;;;1.25;0.80;;;;;;;;;;4928882;28;20083;-83
2021/05/21 03:17:17;;;;;;;2.03;1.08;;;;;;;;;;4923815;28;20066;-84
2021/05/21 03:19:46;;;;;;;1.55;0.88;;;;;;;;;;4926813;28;20071;-83
2021/05/21 03:22:12;;;;;;;2.33;0.93;;;;;;;;;;4917589;28;20035;-82
2021/05/21 03:24:39;;;;;;;1.17;0.93;;;;;;;;;;4905610;29;20133;-82
2021/05/21 03:27:05;;;;;;;2.22;0.90;;;;;;;;;;4946757;28;20063;-82
2021/05/21 03:29:32;;;;;;;2.33;1.00;;;;;;;;;;4928680;28;20083;-82
2021/05/21 03:31:58;;;;;;;1.73;1.00;;;;;;;;;;4927297;28;20051;-82
2021/05/21 03:34:25;;;;;;;1.70;0.93;;;;;;;;;;4942035;28;20091;-85
2021/05/21 03:36:51;;;;;;;2.00;1.10;;;;;;;;;;4956116;28;20066;-84
2021/05/21 03:39:19;;;;;;;1.77;1.00;;;;;;;;;;4952155;28;20094;-84
2021/05/21 03:41:45;;;;;;;3.10;1.10;;;;;;;;;;4934418;28;20063;-83
2021/05/21 03:44:13;;;;;;;2.10;1.10;;;;;;;;;;4939890;28;20070;-84
2021/05/21 03:46:39;;;;;;;1.52;0.93;;;;;;;;;;4936094;28;20071;-84
2021/05/21 03:49:05;;;;;;;1.92;0.90;;;;;;;;;;4932708;28;20063;-83
2021/05/21 03:51:32;;;;;;;1.95;0.95;;;;;;;;;;4932619;28;20055;-83
2021/05/21 03:53:58;;;;;;;1.60;0.98;;;;;;;;;;4932860;28;20146;-83
2021/05/21 03:56:25;;;;;;;1.70;0.90;;;;;;;;;;4920978;28;20035;-84
2021/05/21 03:58:54;;;;;;;1.50;0.80;;;;;;;;;;4927496;28;20067;-84
2021/05/21 04:01:21;;;;;;;1.15;0.82;;;;;;;;;;4917325;28;20113;-84
2021/05/21 04:03:47;;;;;;;2.15;0.98;;;;;;;;;;4925033;28;20048;-83
2021/05/21 04:06:14;;;;;;;1.77;0.90;;;;;;;;;;4930571;28;20060;-84
2021/05/21 04:08:41;;;;;;;1.70;0.80;;;;;;;;;;4932825;28;20035;-84
2021/05/21 04:11:08;;;;;;;1.27;0.88;;;;;;;;;;4932250;28;20503;-83
2021/05/21 04:13:34;;;;;;;1.45;0.80;;;;;;;;;;4933374;28;20759;-85
2021/05/21 04:16:01;;;;;;;1.45;0.77;;;;;;;;;;4923151;28;20055;-84
2021/05/21 04:18:27;;;;;;;1.13;0.80;;;;;;;;;;4937496;28;20048;-85
2021/05/21 04:20:53;;;;;;;1.42;0.88;;;;;;;;;;4925935;28;20082;-86
2021/05/21 04:23:20;;;;;;;2.22;0.90;;;;;;;;;;4926817;28;20091;-85
2021/05/21 04:25:48;;;;;;;1.95;0.88;;;;;;;;;;4930052;28;20456;-85
2021/05/21 04:28:15;;;;;;;1.70;0.90;;;;;;;;;;4931519;28;20511;-86
2021/05/21 04:30:41;;;;;;;1.85;0.90;;;;;;;;;;4926448;28;20341;-86
2021/05/21 04:33:08;;;;;;;1.50;0.88;;;;;;;;;;4944972;28;20110;-86
2021/05/21 04:35:34;;;;;;;1.48;0.85;;;;;;;;;;4945774;28;20055;-85
2021/05/21 04:38:01;;;;;;;1.60;0.85;;;;;;;;;;4930221;28;20115;-84
2021/05/21 04:40:27;;;;;;;2.97;1.10;;;;;;;;;;4915840;28;20040;-83
2021/05/21 04:42:54;;;;;;;2.78;0.93;;;;;;;;;;4941049;28;20035;-82
2021/05/21 04:45:21;;;;;;;1.55;1.10;;;;;;;;;;4898761;28;20071;-82
2021/05/21 04:47:47;;;;;;;2.25;0.80;;;;;;;;;;4911832;29;20055;-82
2021/05/21 04:50:13;;;;;;;1.48;0.80;;;;;;;;;;4922776;28;20083;-83
2021/05/21 04:52:40;;;;;;;1.52;0.90;;;;;;;;;;4939433;28;20059;-82
2021/05/21 04:55:06;;;;;;;1.17;0.60;;;;;;;;;;4933799;28;20156;-82
2021/05/21 04:57:33;;;;;;;2.53;0.98;;;;;;;;;;4930078;28;20115;-82
2021/05/21 04:59:59;;;;;;;1.30;0.80;;;;;;;;;;4951644;28;20109;-82
2021/05/21 05:02:26;;;;;;;1.02;0.70;;;;;;;;;;4926924;28;20127;-82
2021/05/21 05:04:52;;;;;;;2.53;1.00;;;;;;;;;;4950563;28;20223;-82
2021/05/21 05:07:19;;;;;;;1.33;0.80;;;;;;;;;;4938093;28;20067;-83
2021/05/21 05:09:45;;;;;;;1.48;0.90;;;;;;;;;;4917945;28;20056;-83
2021/05/21 05:12:12;;;;;;;1.95;1.00;;;;;;;;;;4920907;28;20027;-83
2021/05/21 05:14:38;;;;;;;1.92;0.80;;;;;;;;;;4920803;28;20063;-84
2021/05/21 05:17:05;;;;;;;1.50;0.90;;;;;;;;;;4904475;28;20115;-83
2021/05/21 05:19:32;;;;;;;1.70;0.90;;;;;;;;;;4938793;28;20178;-83
2021/05/21 05:21:58;;;;;;;1.73;0.70;;;;;;;;;;4931061;28;20043;-85
2021/05/21 05:24:25;;;;;;;1.48;0.73;;;;;;;;;;4914056;28;20063;-86
2021/05/21 05:26:52;;;;;;;1.95;0.85;;;;;;;;;;4926391;28;20063;-86
2021/05/21 05:29:19;;;;;;;2.15;0.90;;;;;;;;;;4931616;28;20039;-85
2021/05/21 05:31:46;;;;;;;1.92;0.93;;;;;;;;;;4935258;28;20055;-86
2021/05/21 05:34:14;;;;;;;1.92;0.88;;;;;;;;;;4919839;28;20036;-86
2021/05/21 05:36:40;;;;;;;1.45;0.80;;;;;;;;;;4928218;29;20066;-87
2021/05/21 05:39:07;;;;;;;1.70;0.80;;;;;;;;;;4938407;28;20084;-83
2021/05/21 05:41:34;;;;;;;1.08;0.90;;;;;;;;;;4941738;28;20397;-83
2021/05/21 05:44:00;;;;;;;1.27;0.80;;;;;;;;;;4929567;28;20036;-83
2021/05/21 05:46:27;;;;;;;1.45;0.90;;;;;;;;;;4913298;28;20162;-83
2021/05/21 05:48:53;;;;;;;1.40;0.85;;;;;;;;;;4939688;28;20505;-84
2021/05/21 05:51:20;;;;;;;1.63;1.02;;;;;;;;;;4934086;28;20092;-85
2021/05/21 05:53:47;;;;;;;1.80;0.90;;;;;;;;;;4945298;28;20055;-82
2021/05/21 05:56:14;;;;;;;1.88;0.90;;;;;;;;;;4929720;28;20048;-86
2021/05/21 05:58:41;;;;;;;2.13;1.05;;;;;;;;;;4939909;28;20103;-84
2021/05/21 06:01:07;;;;;;;1.50;0.88;;;;;;;;;;4922468;28;20067;-84
2021/05/21 06:03:34;;;;;;;1.55;0.93;;;;;;;;;;4919682;28;20587;-82
2021/05/21 06:06:01;;;;;;;1.55;0.88;;;;;;;;;;4939289;28;20075;-84
2021/05/21 06:08:27;;;;;;;1.48;0.77;;;;;;;;;;4923281;28;20055;-86
2021/05/21 06:10:54;;;;;;;1.23;0.70;;;;;;;;;;4936454;28;20071;-86
2021/05/21 06:13:24;;;;;;;1.60;0.80;;;;;;;;;;4906306;28;20055;-85
2021/05/21 06:15:51;;;;;;;1.85;0.93;;;;;;;;;;4905740;29;20036;-82
2021/05/21 06:18:17;;;;;;;1.25;0.85;;;;;;;;;;4917900;28;20570;-85
2021/05/21 06:20:44;;;;;;;1.60;0.80;;;;;;;;;;4918251;28;20063;-85
2021/05/21 06:23:11;;;;;;;1.10;0.80;;;;;;;;;;4907399;28;20071;-82
2021/05/21 06:28:10;;;;;;;3.28;0.90;;;;;;;;;;4921882;28;20075;-80
2021/05/21 06:30:37;;;;;;;3.40;1.00;;;;;;;;;;4919629;28;20087;-82
2021/05/21 06:33:04;;;;;;;5.50;0.95;;;;;;;;;;4943032;28;20086;-80
2021/05/21 06:35:30;;;;;;;2.63;0.82;;;;;;;;;;4911161;28;20046;-82
2021/05/21 06:37:57;;;;;;;1.77;0.95;;;;;;;;;;4935511;28;20127;-82
2021/05/21 06:40:23;;;;;;;1.10;0.70;;;;;;;;;;4919324;28;20040;-83
2021/05/21 06:42:50;;;;;;;1.33;0.80;;;;;;;;;;4922176;28;20115;-78
2021/05/21 06:45:16;;;;;;;2.28;0.77;;;;;;;;;;4924508;28;20075;-89
2021/05/21 06:47:43;;;;;;;3.35;0.90;;;;;;;;;;4921769;28;20035;-94
2021/05/21 06:50:10;;;;;;;2.08;0.80;;;;;;;;;;4929263;28;20043;-90
2021/05/21 06:52:37;;;;;;;4.40;0.90;;;;;;;;;;4930774;28;20677;-80
2021/05/21 06:55:04;;;;;;;2.13;0.90;;;;;;;;;;4919098;28;20032;-84
2021/05/21 06:57:31;;;;;;;2.17;0.90;;;;;;;;;;4939652;28;20132;-82
2021/05/21 06:59:58;;;;;;;2.10;0.93;;;;;;;;;;4925680;28;20101;-85
2021/05/21 07:02:26;;;;;;;1.30;0.90;;;;;;;;;;4941241;28;20040;-84
2021/05/21 07:04:53;;;;;;;1.60;0.82;;;;;;;;;;4927229;28;20551;-83
2021/05/21 07:07:20;;;;;;;1.77;0.68;;;;;;;;;;4951076;28;20046;-87
2021/05/21 07:09:46;;;;;;;1.80;0.95;;;;;;;;;;4910799;29;20059;-86
2021/05/21 07:12:12;;;;;;;4.43;1.00;;;;;;;;;;4906290;28;20041;-83
2021/05/21 07:14:39;;;;;;;2.88;0.90;;;;;;;;;;4919906;28;20510;-82
2021/05/21 07:17:06;;;;;;;1.70;0.90;;;;;;;;;;4909044;28;20043;-82
2021/05/21 07:19:33;;;;;;;3.08;1.15;;;;;;;;;;4923075;28;20067;-82
2021/05/21 07:21:59;;;;;;;4.60;1.17;;;;;;;;;;4923447;28;20071;-86
2021/05/21 07:24:26;;;;;;;2.80;1.10;;;;;;;;;;4935143;28;21259;-83
2021/05/21 07:26:52;;;;;;;2.50;1.00;;;;;;;;;;4922554;28;20601;-85
2021/05/21 07:29:19;;;;;;;1.38;0.80;;;;;;;;;;4921195;28;20071;-81
2021/05/21 07:31:45;;;;;;;2.03;0.90;;;;;;;;;;4930584;28;20087;-81
2021/05/21 07:34:12;;;;;;;2.95;1.05;;;;;;;;;;4917859;28;20175;-81
2021/05/21 07:36:38;;;;;;;1.48;0.90;;;;;;;;;;4904942;29;21347;-80
2021/05/21 07:39:05;;;;;;;2.63;0.80;;;;;;;;;;4923468;28;20136;-85
2021/05/21 07:41:32;;;;;;;1.20;0.70;;;;;;;;;;4924727;28;20079;-89
2021/05/21 07:43:58;;;;;;;1.40;1.00;;;;;;;;;;4925866;28;20108;-88
2021/05/21 07:46:26;;;;;;;2.08;0.90;;;;;;;;;;4935850;28;20100;-95
2021/05/21 07:48:53;;;;;;;1.95;0.85;;;;;;;;;;4924937;28;20071;-93
2021/05/21 07:51:22;;;;;;;1.83;0.98;;;;;;;;;;4923571;28;20066;-89
2021/05/21 07:53:49;;;;;;;3.50;1.20;;;;;;;;;;4907050;28;20115;-81
2021/05/21 07:56:15;;;;;;;6.13;0.90;;;;;;;;;;4918841;28;20047;-82
2021/05/21 07:58:42;;;;;;;2.03;1.00;;;;;;;;;;4935724;28;20059;-84
2021/05/21 08:01:08;;;;;;;2.20;0.90;;;;;;;;;;4932772;28;20063;-84
2021/05/21 08:03:35;;;;;;;6.55;0.90;;;;;;;;;;4939122;28;20131;-91
2021/05/21 08:06:02;;;;;;;6.20;1.00;;;;;;;;;;4938532;28;20433;-85
2021/05/21 08:08:31;;;;;;;2.28;0.70;;;;;;;;;;4912963;28;20059;-88
2021/05/21 08:10:58;;;;;;;3.78;1.05;;;;;;;;;;4939672;28;20056;-84
2021/05/21 08:13:25;;;;;;;4.88;1.40;;;;;;;;;;4936570;28;21739;-83
2021/05/21 08:15:52;;;;;;;5.80;1.23;;;;;;;;;;4920198;28;20527;-87
2021/05/21 08:18:19;;;;;;;3.42;0.82;;;;;;;;;;4926544;28;20064;-87
2021/05/21 08:20:47;;;;;;;3.15;1.00;;;;;;;;;;4926959;28;20046;-87
2021/05/21 08:23:14;;;;;;;3.63;0.95;;;;;;;;;;4913589;28;20039;-87
2021/05/21 08:25:41;;;;;;;5.50;1.00;;;;;;;;;;4922616;28;20063;-87
2021/05/21 08:28:08;;;;;;;2.92;0.95;;;;;;;;;;4943135;28;20587;-88
2021/05/21 08:30:35;;;;;;;2.83;1.10;;;;;;;;;;4921748;28;20393;-89
2021/05/21 08:33:01;;;;;;;3.05;1.00;;;;;;;;;;4908640;29;20063;-89
2021/05/21 08:35:28;;;;;;;1.80;0.90;;;;;;;;;;4904647;28;20500;-85
2021/05/21 08:37:55;;;;;;;2.83;0.90;;;;;;;;;;4940545;28;20095;-86
2021/05/21 08:40:36;;;;;;;4.38;1.10;;;;;;;;;;4904078;28;20063;-84
2021/05/21 08:43:05;;;;;;;2.53;1.10;;;;;;;;;;4920284;28;20052;-86
2021/05/21 08:45:31;;;;;;;6.47;0.98;;;;;;;;;;4933094;28;20388;-83
2021/05/21 08:47:58;;;;;;;1.73;0.90;;;;;;;;;;4920841;28;20051;-84
2021/05/21 08:50:25;;;;;;;3.42;0.93;;;;;;;;;;4922451;28;20091;-85
2021/05/21 08:52:52;;;;;;;5.30;1.30;;;;;;;;;;4935399;28;20379;-82
2021/05/21 08:55:19;;;;;;;3.13;0.90;;;;;;;;;;4930830;28;20046;-86
2021/05/21 08:57:51;;;;;;;7.93;1.13;;;;;;;;;;4921281;28;20063;-85
2021/05/21 09:00:18;;;;;;;2.58;0.98;;;;;;;;;;4913949;28;20039;-83
2021/05/21 09:02:46;;;;;;;5.40;1.10;;;;;;;;;;4919933;28;20126;-85
2021/05/21 09:05:12;;;;;;;2.72;1.10;;;;;;;;;;4923808;28;20523;-83
2021/05/21 09:07:43;;;;;;;3.60;0.93;;;;;;;;;;4937300;28;20591;-83
2021/05/21 09:10:11;;;;;;;3.65;1.30;;;;;;;;;;4905292;28;20099;-83
2021/05/21 09:12:38;;;;;;;2.83;1.17;;;;;;;;;;4910237;29;20477;-83
2021/05/21 09:15:06;;;;;;;2.58;0.90;;;;;;;;;;4908790;28;20035;-81
2021/05/21 09:17:33;;;;;;;3.85;1.20;;;;;;;;;;4911347;29;20040;-81
2021/05/21 09:20:00;;;;;;;5.15;1.02;;;;;;;;;;4915833;28;20052;-82
2021/05/21 09:22:26;;;;;;;1.98;0.90;;;;;;;;;;4919311;28;20102;-82
2021/05/21 09:24:54;;;;;;;3.97;0.90;;;;;;;;;;4925413;28;20035;-86
2021/05/21 09:27:21;;;;;;;3.53;1.00;;;;;;;;;;4931461;28;20150;-85
2021/05/21 09:29:47;;;;;;;1.85;0.90;;;;;;;;;;4937038;28;20437;-85
2021/05/21 09:32:16;;;;;;;4.68;1.20;;;;;;;;;;4935703;28;20040;-80
2021/05/21 09:34:48;;;;;;;1.98;0.70;;;;;;;;;;4926657;28;20539;-83
2021/05/21 09:37:27;;;;;;;2.42;0.90;;;;;;;;;;4922511;28;20028;-82
2021/05/21 09:40:04;;;;;;;1.60;0.90;;;;;;;;;;4925596;28;20549;-83
2021/05/21 09:42:43;;;;;;;1.35;1.00;;;;;;;;;;4916221;28;20059;-83
2021/05/21 09:45:25;;;;;;;1.80;0.90;;;;;;;;;;4920673;28;20048;-84
2021/05/21 09:47:51;;;;;;;;;;;;;;;;;;4925190;28;20048;-84
2021/05/21 09:50:17;;;;;;;4.95;1.10;;;;;;;;;;4913115;28;20244;-84
2021/05/21 09:52:48;;;;;;;2.05;0.90;;;;;;;;;;4935203;28;20040;-84
2021/05/21 09:55:15;;;;;;;2.75;1.00;;;;;;;;;;4932394;28;20052;-83
2021/05/21 09:57:41;;;;;;;1.95;1.05;;;;;;;;;;4924476;28;20040;-83
2021/05/21 10:00:10;;;;;;;3.22;1.10;;;;;;;;;;4920114;28;20063;-84
2021/05/21 10:02:36;;;;;;;3.08;1.00;;;;;;;;;;4922195;28;20063;-84
2021/05/21 10:05:04;;;;;;;3.22;1.10;;;;;;;;;;4938253;28;20039;-83
2021/05/21 10:07:31;;;;;;;1.55;1.00;;;;;;;;;;4905433;28;20106;-84
2021/05/21 10:09:57;;;;;;;1.35;0.90;;;;;;;;;;4918341;28;20563;-84
2021/05/21 10:12:27;;;;;;;1.90;1.10;;;;;;;;;;4924964;28;20063;-84
2021/05/21 10:14:54;;;;;;;2.42;0.85;;;;;;;;;;4937319;28;20563;-83
2021/05/21 10:17:24;;;;;;;1.60;1.10;;;;;;;;;;4914444;28;20448;-83
2021/05/21 10:19:51;;;;;;;2.50;0.95;;;;;;;;;;4920072;28;20424;-82
2021/05/21 10:22:25;;;;;;;2.40;0.98;;;;;;;;;;4913856;28;20063;-73
2021/05/21 10:24:54;;;;;;;1.65;0.90;;;;;;;;;;4921625;28;20068;-74
2021/05/21 10:27:24;;;;;;;1.42;0.80;;;;;;;;;;4916678;28;20071;-74
2021/05/21 10:29:58;;;;;;;2.40;0.98;;;;;;;;;;4920664;28;20052;-74
2021/05/21 10:32:30;;;;;;;2.88;1.10;;;;;;;;;;4921477;28;20119;-73
2021/05/21 10:34:56;;;;;;;;;;;;;;;;;;4936683;28;20578;-74
2021/05/21 10:37:31;;;;;;;3.03;1.00;;;;;;;;;;4916847;28;19957;-73
2021/05/21 10:39:59;;;;;;;2.22;0.98;;;;;;;;;;4917976;28;20079;-74
2021/05/21 10:42:25;;;;;;;2.47;1.05;;;;;;;;;;4919861;28;20211;-75
2021/05/21 10:44:52;;;;;;;2.60;1.00;;;;;;;;;;4921491;28;20063;-73
2021/05/21 10:47:22;;;;;;;1.95;1.02;;;;;;;;;;4921092;28;20071;-74
2021/05/21 10:49:49;;;;;;;3.03;1.00;;;;;;;;;;4936198;28;20507;-74
2021/05/21 10:52:15;;;;;;;2.25;1.00;;;;;;;;;;4921952;28;20063;-75
2021/05/21 10:54:46;;;;;;;2.05;0.95;;;;;;;;;;4917448;28;20472;-74
2021/05/21 10:57:12;;;;;;;4.18;0.85;;;;;;;;;;4922788;28;20035;-75
2021/05/21 10:59:58;;;;;;;2.05;0.90;;;;;;;;;;4906121;28;20103;-75
2021/05/21 11:02:44;;;;;;;2.67;0.95;;;;;;;;;;4927826;28;20139;-74
2021/05/21 11:05:40;;;;;;;1.77;0.95;;;;;;;;;;4924093;28;20527;-75
2021/05/21 11:08:11;;;;;;;2.10;1.00;;;;;;;;;;4904208;28;20052;-75
2021/05/21 11:10:38;;;;;;;;;;;;;;;;;;4931542;28;20505;-74
2021/05/21 11:13:09;;;;;;;3.10;1.10;;;;;;;;;;4913261;28;19955;-74
2021/05/21 11:15:40;;;;;;;2.33;1.13;;;;;;;;;;4923772;28;20050;-74
2021/05/21 11:18:09;;;;;;;1.98;1.00;;;;;;;;;;4922860;28;20586;-75
2021/05/21 11:20:54;;;;;;;3.17;1.30;;;;;;;;;;4913409;28;20225;-74
2021/05/21 11:23:28;;;;;;;2.33;0.90;;;;;;;;;;4933068;28;20071;-75
2021/05/21 11:26:13;;;;;;;1.80;0.90;;;;;;;;;;4926778;28;20055;-74
2021/05/21 11:28:42;;;;;;;2.03;0.95;;;;;;;;;;4921332;28;20274;-74
2021/05/21 11:31:10;;;;;;;2.30;1.05;;;;;;;;;;4930948;28;20060;-75
2021/05/21 11:33:36;;;;;;;2.53;0.88;;;;;;;;;;4916985;28;20040;-73
2021/05/21 11:36:09;;;;;;;1.98;1.17;;;;;;;;;;4919829;28;20046;-74
2021/05/21 11:38:36;;;;;;;1.95;1.10;;;;;;;;;;4918377;28;20087;-75
2021/05/21 11:41:03;;;;;;;2.67;1.23;;;;;;;;;;4928656;28;20107;-74
2021/05/21 11:43:30;;;;;;;2.25;0.90;;;;;;;;;;4935472;28;20055;-75
2021/05/21 11:45:57;;;;;;;1.60;1.00;;;;;;;;;;4922979;28;20120;-74
2021/05/21 11:48:34;;;;;;;1.67;1.05;;;;;;;;;;4919086;28;20079;-75
2021/05/21 11:51:01;;;;;;;1.42;0.90;;;;;;;;;;4943263;28;20095;-75
2021/05/21 11:53:31;;;;;;;2.10;1.10;;;;;;;;;;4923501;28;20614;-74
2021/05/21 11:55:57;;;;;;;2.40;1.10;;;;;;;;;;4925695;28;20059;-75
2021/05/21 11:58:24;;;;;;;2.35;1.10;;;;;;;;;;4930054;28;20180;-75
2021/05/21 12:01:03;;;;;;;1.23;0.90;;;;;;;;;;4916988;28;20075;-75
2021/05/21 12:03:48;;;;;;;2.05;1.10;;;;;;;;;;4913920;29;20076;-74
2021/05/21 12:06:15;;;;;;;2.15;1.08;;;;;;;;;;4918528;28;20047;-75
2021/05/21 12:08:46;;;;;;;3.65;1.30;;;;;;;;;;4938650;28;20066;-74
2021/05/21 12:11:12;;;;;;;2.08;1.00;;;;;;;;;;4933336;28;20067;-74
2021/05/21 12:13:39;;;;;;;1.50;1.00;;;;;;;;;;4927913;28;20058;-74
2021/05/21 12:16:19;;;;;;;3.35;1.17;;;;;;;;;;4933494;28;20117;-76
2021/05/21 12:18:46;;;;;;;1.45;1.02;;;;;;;;;;4920094;29;20067;-74
2021/05/21 12:21:13;;;;;;;2.72;1.00;;;;;;;;;;4919195;28;20682;-75
2021/05/21 12:23:40;;;;;;;1.95;1.00;;;;;;;;;;4931639;28;20112;-74
2021/05/21 12:26:07;;;;;;;2.00;0.90;;;;;;;;;;4929937;28;20142;-75
2021/05/21 12:28:34;;;;;;;1.70;1.00;;;;;;;;;;4919728;28;20145;-75
2021/05/21 12:31:03;;;;;;;2.42;0.90;;;;;;;;;;4913136;28;20515;-74
2021/05/21 12:33:36;;;;;;;1.60;0.95;;;;;;;;;;4931259;28;20102;-75
2021/05/21 12:36:11;;;;;;;1.48;0.88;;;;;;;;;;4920764;28;20721;-75
2021/05/21 12:38:39;;;;;;;2.38;1.13;;;;;;;;;;4916770;28;20054;-76
2021/05/21 12:41:06;;;;;;;3.90;1.10;;;;;;;;;;4925769;28;20128;-75
2021/05/21 12:43:32;;;;;;;1.48;1.00;;;;;;;;;;4929821;28;20102;-75
2021/05/21 12:46:04;;;;;;;2.03;1.10;;;;;;;;;;4911110;29;20040;-74
2021/05/21 12:48:33;;;;;;;3.05;1.00;;;;;;;;;;4932709;28;20142;-74
2021/05/21 12:51:18;;;;;;;1.83;0.98;;;;;;;;;;4935000;28;20833;-74
2021/05/21 12:53:46;;;;;;;1.58;1.00;;;;;;;;;;4932585;28;20044;-74
2021/05/21 12:56:32;;;;;;;2.33;1.00;;;;;;;;;;4931070;28;20118;-75
2021/05/21 12:58:58;;;;;;;1.60;1.00;;;;;;;;;;4926373;28;20039;-75
2021/05/21 13:01:25;;;;;;;2.60;1.27;;;;;;;;;;4913339;28;20603;-75
2021/05/21 13:03:55;;;;;;;1.85;0.95;;;;;;;;;;4924500;28;20063;-75
2021/05/21 13:06:40;;;;;;;2.22;1.10;;;;;;;;;;4915434;28;20111;-75
2021/05/21 13:09:08;;;;;;;1.98;1.00;;;;;;;;;;4932270;28;20067;-76
2021/05/21 13:11:48;;;;;;;1.95;1.10;;;;;;;;;;4921380;28;20047;-75
2021/05/21 13:14:15;;;;;;;2.08;1.15;;;;;;;;;;4934670;28;20074;-75
2021/05/21 13:16:46;;;;;;;1.48;0.80;;;;;;;;;;4922047;28;20118;-75
2021/05/21 13:19:20;;;;;;;1.40;0.90;;;;;;;;;;4919154;28;20792;-74
2021/05/21 13:21:47;;;;;;;1.65;0.80;;;;;;;;;;4938115;28;20055;-72
2021/05/21 13:24:15;;;;;;;2.40;1.05;;;;;;;;;;4922961;28;20196;-74
2021/05/21 13:26:49;;;;;;;3.08;1.17;;;;;;;;;;4907410;29;20067;-73
2021/05/21 13:29:16;;;;;;;2.75;1.02;;;;;;;;;;4920023;28;20071;-74
2021/05/21 13:31:43;;;;;;;2.47;1.10;;;;;;;;;;4921454;28;20110;-74
2021/05/21 13:34:09;;;;;;;4.10;1.08;;;;;;;;;;4925009;28;20762;-74
2021/05/21 13:36:36;;;;;;;2.20;0.93;;;;;;;;;;4925622;28;20070;-74
2021/05/21 13:39:03;;;;;;;1.60;0.93;;;;;;;;;;4929415;28;20075;-73
2021/05/21 13:41:30;;;;;;;1.52;0.82;;;;;;;;;;4935194;28;20571;-73
2021/05/21 13:43:56;;;;;;;1.67;0.95;;;;;;;;;;4940015;28;20071;-73
2021/05/21 13:46:24;;;;;;;1.55;0.90;;;;;;;;;;4918045;28;20083;-73
2021/05/21 13:48:50;;;;;;;1.38;0.85;;;;;;;;;;4934087;28;20515;-74
2021/05/21 13:51:17;;;;;;;5.07;1.02;;;;;;;;;;4935995;28;20145;-73
2021/05/21 13:53:44;;;;;;;2.90;1.23;;;;;;;;;;4923151;28;20063;-73
2021/05/21 13:56:12;;;;;;;1.65;1.00;;;;;;;;;;4921143;28;20165;-73
2021/05/21 13:58:39;;;;;;;4.00;1.50;;;;;;;;;;4924531;28;20040;-73
2021/05/21 14:01:06;;;;;;;2.05;1.35;;;;;;;;;;4936655;28;20114;-76
2021/05/21 14:03:32;;;;;;;2.72;1.20;;;;;;;;;;4919993;28;20071;-73
2021/05/21 14:05:59;;;;;;;2.42;1.45;;;;;;;;;;4925111;28;20119;-74
2021/05/21 14:08:25;;;;;;;2.55;1.45;;;;;;;;;;4921650;28;20548;-73
2021/05/21 14:10:52;;;;;;;3.42;1.70;;;;;;;;;;4922314;28;20074;-74
2021/05/21 14:13:18;;;;;;;2.63;1.60;;;;;;;;;;4935433;28;20122;-74
2021/05/21 14:15:45;;;;;;;3.33;1.52;;;;;;;;;;4933078;28;20091;-72
2021/05/21 14:18:11;;;;;;;3.22;1.58;;;;;;;;;;4918197;28;20571;-74
2021/05/21 14:20:38;;;;;;;3.58;2.00;;;;;;;;;;4919603;28;20122;-74
2021/05/21 14:23:05;;;;;;;3.25;1.70;;;;;;;;;;4918159;28;20118;-73
2021/05/21 14:25:33;;;;;;;7.30;2.65;;;;;;;;;;4916016;28;20534;-74
2021/05/21 14:28:00;;;;;;;2.58;1.52;;;;;;;;;;4918048;28;20981;-74
2021/05/21 14:30:27;;;;;;;2.42;1.23;;;;;;;;;;4919210;28;20547;-74
2021/05/21 14:32:57;;;;;;;3.75;1.50;;;;;;;;;;4929472;28;20123;-77
2021/05/21 14:35:23;;;;;;;6.07;1.50;;;;;;;;;;4919839;28;20095;-74
2021/05/21 14:37:50;;;;;;;5.32;1.88;;;;;;;;;;4937916;28;20059;-76
2021/05/21 14:40:17;;;;;;;4.68;1.42;;;;;;;;;;4936425;28;20040;-75
2021/05/21 14:42:44;;;;;;;4.47;1.23;;;;;;;;;;4916323;29;20052;-75
2021/05/21 14:45:13;;;;;;;6.18;4.57;;;;;;;;;;4916049;28;20111;-77
2021/05/21 14:47:44;;;;;;;6.55;4.00;;;;;;;;;;4933436;28;20047;-80
2021/05/21 14:50:11;;;;;;;6.35;4.13;;;;;;;;;;4931906;28;20146;-78